Time;durP1;ratioP1;P1;durP2;ratioP2;P2;SDS_P1;SDS_P2;PMS_P1;PMS_P2;Temp;Humidity;BMP_temperature;BMP_pressure;BME280_temperature;BME280_humidity;BME280_pressure;Samples;Min_cycle;Max_cycle;Signal;HPM_P1;HPM_P2
2023/07/28 00:01:53;;;;;;;4.15;2.33;;;;;;;14.77;100.00;96616.81;5058955;28;20094;-54
2023/07/28 00:04:19;;;;;;;5.47;3.08;;;;;;;14.89;100.00;96612.81;5060241;28;20052;-54
2023/07/28 00:06:46;;;;;;;6.00;2.83;;;;;;;15.02;100.00;96603.84;5061125;28;20044;-52
2023/07/28 00:09:13;;;;;;;4.70;2.58;;;;;;;15.21;100.00;96601.06;5061349;28;20136;-55
2023/07/28 00:11:39;;;;;;;5.78;2.60;;;;;;;15.34;100.00;96595.94;5057919;28;20068;-54
2023/07/28 00:14:06;;;;;;;4.57;2.40;;;;;;;15.51;100.00;96597.25;5059877;28;20653;-55
2023/07/28 00:16:32;;;;;;;3.78;2.10;;;;;;;15.67;100.00;96589.56;5059930;28;20043;-55
2023/07/28 00:18:59;;;;;;;4.63;2.45;;;;;;;15.87;100.00;96596.50;5061399;28;20040;-56
2023/07/28 00:21:26;;;;;;;4.72;2.28;;;;;;;16.01;100.00;96579.31;5060772;28;20052;-56
2023/07/28 00:23:53;;;;;;;4.30;2.00;;;;;;;16.11;100.00;96584.56;5061262;28;20033;-54
2023/07/28 00:26:20;;;;;;;4.18;2.25;;;;;;;16.16;100.00;96583.63;5059963;28;20139;-54
2023/07/28 00:28:46;;;;;;;3.88;2.10;;;;;;;16.19;100.00;96581.09;5061019;28;20810;-54
2023/07/28 00:31:13;;;;;;;4.70;2.15;;;;;;;16.22;100.00;96576.94;5060966;28;20407;-54
2023/07/28 00:33:40;;;;;;;3.85;2.20;;;;;;;16.16;100.00;96572.69;5059823;28;20033;-56
2023/07/28 00:36:06;;;;;;;4.80;2.00;;;;;;;16.19;100.00;96578.38;5060306;28;20044;-54
2023/07/28 00:38:33;;;;;;;3.78;1.98;;;;;;;16.34;100.00;96573.66;5061597;28;20106;-55
2023/07/28 00:40:59;;;;;;;3.75;2.03;;;;;;;16.37;100.00;96576.56;5060177;28;20047;-54
2023/07/28 00:43:26;;;;;;;4.80;2.13;;;;;;;16.35;100.00;96580.72;5058856;28;20568;-53
2023/07/28 00:45:53;;;;;;;5.05;2.20;;;;;;;16.32;100.00;96575.88;5060510;28;20037;-52
2023/07/28 00:48:20;;;;;;;3.70;1.70;;;;;;;16.28;100.00;96578.41;5058779;28;20138;-52
2023/07/28 00:50:48;;;;;;;3.60;1.90;;;;;;;16.04;100.00;96581.44;5060784;28;20036;-51
2023/07/28 00:53:15;;;;;;;4.15;2.17;;;;;;;16.18;100.00;96579.47;5059949;28;20043;-53
2023/07/28 00:55:42;;;;;;;5.60;2.33;;;;;;;16.16;100.00;96576.25;5060667;28;20056;-54
2023/07/28 00:58:09;;;;;;;3.60;2.05;;;;;;;16.17;100.00;96577.03;5060870;28;20040;-55
2023/07/28 01:00:36;;;;;;;5.28;2.03;;;;;;;16.07;100.00;96561.72;5061307;28;20052;-53
2023/07/28 01:03:03;;;;;;;3.17;1.80;;;;;;;15.98;100.00;96575.28;5059981;28;20046;-56
2023/07/28 01:05:55;;;;;;;3.88;2.25;;;;;;;15.82;100.00;96574.78;5059329;28;20044;-55
2023/07/28 01:08:47;;;;;;;4.97;2.13;;;;;;;15.60;100.00;96576.31;5060239;28;20037;-55
2023/07/28 01:11:14;;;;;;;4.18;2.22;;;;;;;15.29;100.00;96575.00;5058661;28;20075;-53
2023/07/28 01:13:41;;;;;;;6.78;2.65;;;;;;;15.34;100.00;96577.63;5049022;28;20062;-55
2023/07/28 01:16:08;;;;;;;4.45;2.38;;;;;;;15.17;100.00;96575.50;5074339;28;20064;-56
2023/07/28 01:18:35;;;;;;;3.83;2.17;;;;;;;15.17;100.00;96580.97;5060454;28;20048;-55
2023/07/28 01:21:07;;;;;;;3.85;1.88;;;;;;;15.40;100.00;96577.53;5058709;28;20035;-55
2023/07/28 01:24:00;;;;;;;3.85;2.15;;;;;;;15.66;100.00;96575.09;5060928;28;20041;-53
2023/07/28 01:26:35;;;;;;;3.45;1.85;;;;;;;15.71;100.00;96579.63;5057516;28;20583;-50
2023/07/28 01:29:04;;;;;;;4.38;2.13;;;;;;;15.77;100.00;96572.94;5060723;28;21383;-53
2023/07/28 01:31:31;;;;;;;5.88;2.28;;;;;;;15.72;100.00;96581.25;5059476;28;20045;-54
2023/07/28 01:33:58;;;;;;;3.70;1.80;;;;;;;15.66;100.00;96569.63;5059694;28;20123;-56
2023/07/28 01:36:24;;;;;;;3.67;1.95;;;;;;;15.51;100.00;96573.47;5059723;28;20048;-53
2023/07/28 01:38:52;;;;;;;3.72;2.15;;;;;;;15.43;100.00;96568.72;5060195;28;20131;-53
2023/07/28 01:41:18;;;;;;;4.38;2.17;;;;;;;15.49;100.00;96570.25;5056833;28;20044;-56
2023/07/28 01:43:45;;;;;;;5.20;2.25;;;;;;;15.30;100.00;96568.44;5061587;28;20559;-51
2023/07/28 01:46:12;;;;;;;3.70;2.08;;;;;;;15.24;100.00;96566.09;5059886;28;20036;-52
2023/07/28 01:48:38;;;;;;;3.28;1.90;;;;;;;15.10;100.00;96561.44;5059373;28;20040;-53
2023/07/28 01:51:05;;;;;;;5.25;2.15;;;;;;;15.00;100.00;96565.16;5059178;28;20135;-55
2023/07/28 01:53:31;;;;;;;4.65;1.98;;;;;;;14.93;100.00;96559.31;5061846;28;20036;-55
2023/07/28 01:55:58;;;;;;;3.50;1.83;;;;;;;14.98;100.00;96556.50;5063563;28;20068;-56
2023/07/28 01:58:25;;;;;;;6.18;2.97;;;;;;;14.86;100.00;96558.91;5061440;28;20599;-56
2023/07/28 02:00:51;;;;;;;4.03;2.08;;;;;;;14.79;100.00;96553.84;5061878;28;20336;-54
2023/07/28 02:03:18;;;;;;;5.00;2.15;;;;;;;14.73;100.00;96568.63;5062495;28;20056;-53
2023/07/28 02:05:44;;;;;;;5.80;2.10;;;;;;;14.67;100.00;96567.91;5062095;28;20047;-54
2023/07/28 02:08:11;;;;;;;4.53;2.40;;;;;;;14.62;100.00;96568.81;5062940;28;20055;-56
2023/07/28 02:10:38;;;;;;;5.85;2.47;;;;;;;14.64;100.00;96561.16;5062252;28;20048;-56
2023/07/28 02:13:04;;;;;;;4.10;1.95;;;;;;;14.67;100.00;96560.53;5063907;28;20033;-54
2023/07/28 02:15:31;;;;;;;5.13;2.30;;;;;;;14.72;100.00;96567.81;5061274;28;20094;-54
2023/07/28 02:17:57;;;;;;;4.25;1.88;;;;;;;14.67;100.00;96567.91;5061623;28;20047;-53
2023/07/28 02:20:24;;;;;;;4.20;2.08;;;;;;;14.72;100.00;96567.81;5061796;28;20044;-53
2023/07/28 02:22:51;;;;;;;4.25;2.40;;;;;;;14.78;100.00;96576.75;5061391;28;20122;-52
2023/07/28 02:25:17;;;;;;;3.53;2.15;;;;;;;14.83;100.00;96572.00;5062886;28;20672;-55
2023/07/28 02:27:44;;;;;;;3.33;1.98;;;;;;;14.91;100.00;96573.25;5062516;28;20044;-54
2023/07/28 02:30:10;;;;;;;3.75;2.00;;;;;;;14.91;100.00;96572.44;5063035;28;20615;-51
2023/07/28 02:32:37;;;;;;;4.75;2.28;;;;;;;14.86;100.00;96573.34;5062742;28;20086;-55
2023/07/28 02:35:04;;;;;;;5.38;2.08;;;;;;;14.86;100.00;96580.69;5059124;28;20068;-55
2023/07/28 02:37:31;;;;;;;4.25;1.95;;;;;;;14.75;100.00;96582.78;5062826;28;20672;-56
2023/07/28 02:39:57;;;;;;;4.03;2.13;;;;;;;14.70;100.00;96579.03;5062295;28;20048;-53
2023/07/28 02:42:25;;;;;;;4.90;2.17;;;;;;;14.83;100.00;96580.19;5062341;28;20043;-54
2023/07/28 02:44:51;;;;;;;4.15;2.38;;;;;;;14.82;100.00;96580.50;5061259;28;20714;-54
2023/07/28 02:47:18;;;;;;;8.02;2.22;;;;;;;14.77;100.00;96583.28;5063547;28;20059;-54
2023/07/28 02:49:45;;;;;;;5.55;2.10;;;;;;;14.81;100.00;96593.31;5061274;28;20032;-51
2023/07/28 02:52:12;;;;;;;4.25;2.35;;;;;;;14.86;100.00;96594.34;5060337;28;20414;-54
2023/07/28 02:54:39;;;;;;;3.88;2.10;;;;;;;14.73;100.00;96593.13;5060714;28;20058;-54
2023/07/28 02:57:06;;;;;;;4.97;2.20;;;;;;;14.69;100.00;96606.56;5062410;28;20045;-55
2023/07/28 02:59:32;;;;;;;5.20;2.55;;;;;;;14.73;100.00;96621.22;5063692;28;20040;-55
2023/07/28 03:01:59;;;;;;;5.93;2.53;;;;;;;14.77;100.00;96621.44;5061867;28;20044;-54
2023/07/28 03:04:26;;;;;;;3.63;2.00;;;;;;;14.73;100.00;96623.94;5059836;28;20032;-54
2023/07/28 03:07:21;;;;;;;4.38;2.25;;;;;;;14.76;100.00;96617.94;5061064;28;20075;-53
2023/07/28 03:09:54;;;;;;;4.30;2.15;;;;;;;14.79;100.00;96625.50;5061432;28;20041;-54
2023/07/28 03:12:21;;;;;;;4.93;2.45;;;;;;;14.85;100.00;96631.66;5060132;28;20048;-55
2023/07/28 03:14:47;;;;;;;4.20;2.20;;;;;;;14.89;100.00;96632.69;5059571;28;20043;-53
2023/07/28 03:17:14;;;;;;;5.93;2.78;;;;;;;14.92;100.00;96632.09;5062018;28;20067;-54
2023/07/28 03:19:41;;;;;;;4.90;2.42;;;;;;;14.77;100.00;96645.97;5058745;28;20044;-55
2023/07/28 03:22:07;;;;;;;4.20;2.40;;;;;;;14.70;100.00;96659.94;5059963;28;20044;-54
2023/07/28 03:24:34;;;;;;;4.85;2.60;;;;;;;14.67;100.00;96669.53;5063009;28;20060;-55
2023/07/28 03:27:00;;;;;;;5.82;2.50;;;;;;;14.75;100.00;96665.34;5061850;28;20040;-54
2023/07/28 03:29:27;;;;;;;3.80;2.05;;;;;;;14.79;100.00;96666.38;5064131;28;20438;-55
2023/07/28 03:31:54;;;;;;;5.95;2.88;;;;;;;14.79;100.00;96669.13;5062586;28;20040;-54
2023/07/28 03:34:20;;;;;;;5.00;2.75;;;;;;;14.82;100.00;96675.88;5060212;28;20044;-55
2023/07/28 03:36:48;;;;;;;4.18;2.30;;;;;;;14.85;100.00;96682.66;5059902;28;20052;-51
2023/07/28 03:39:15;;;;;;;4.70;2.20;;;;;;;14.89;100.00;96676.28;5061357;28;20040;-53
2023/07/28 03:41:45;;;;;;;5.73;2.37;;;;;;;14.94;100.00;96680.88;5061393;28;20713;-52
2023/07/28 03:44:12;;;;;;;5.03;2.10;;;;;;;14.95;100.00;96674.31;5062070;28;20040;-53
2023/07/28 03:46:39;;;;;;;8.43;2.50;;;;;;;14.95;100.00;96669.66;5060920;28;20531;-53
2023/07/28 03:49:05;;;;;;;4.93;2.22;;;;;;;15.03;100.00;96667.34;5061323;28;20040;-54
2023/07/28 03:51:32;;;;;;;5.82;2.72;;;;;;;15.05;100.00;96670.59;5060340;28;20052;-54
2023/07/28 03:53:58;;;;;;;5.85;2.30;;;;;;;15.10;100.00;96664.25;5061091;28;20048;-53
2023/07/28 03:56:25;;;;;;;5.00;2.38;;;;;;;15.15;100.00;96658.72;5060506;28;20048;-54
2023/07/28 03:58:53;;;;;;;4.45;2.40;;;;;;;15.16;100.00;96657.59;5063892;28;20499;-52
2023/07/28 04:01:21;;;;;;;6.15;3.05;;;;;;;15.21;100.00;96665.69;5062370;28;20041;-54
2023/07/28 04:03:48;;;;;;;6.97;2.80;;;;;;;15.26;100.00;96662.88;5062192;28;20652;-55
2023/07/28 04:06:15;;;;;;;4.90;2.22;;;;;;;15.21;100.00;96671.13;5060871;28;20129;-55
2023/07/28 04:08:42;;;;;;;4.72;2.58;;;;;;;15.25;100.00;96661.25;5063890;28;20036;-54
2023/07/28 04:11:09;;;;;;;5.55;2.17;;;;;;;15.28;100.00;96662.56;5060570;28;20131;-52
2023/07/28 04:13:36;;;;;;;8.02;3.85;;;;;;;15.28;100.00;96657.94;5062138;28;20039;-53
2023/07/28 04:16:02;;;;;;;5.20;2.90;;;;;;;15.32;100.00;96658.94;5060634;28;20036;-54
2023/07/28 04:18:31;;;;;;;6.03;2.40;;;;;;;15.38;100.00;96658.84;5061602;28;21227;-53
2023/07/28 04:20:58;;;;;;;4.80;2.63;;;;;;;15.42;100.00;96655.22;5060834;28;20049;-55
2023/07/28 04:23:24;;;;;;;4.50;2.47;;;;;;;15.40;100.00;96662.91;5060112;28;20045;-52
2023/07/28 04:25:51;;;;;;;5.57;2.88;;;;;;;15.40;100.00;96673.00;5060843;28;20124;-51
2023/07/28 04:28:19;;;;;;;4.35;2.50;;;;;;;15.42;100.00;96668.88;5061550;28;20045;-50
2023/07/28 04:30:46;;;;;;;7.20;3.20;;;;;;;15.42;100.00;96662.59;5061468;28;20047;-51
2023/07/28 04:33:33;;;;;;;7.68;4.07;;;;;;;15.40;100.00;96660.16;5061864;28;20051;-52
2023/07/28 04:36:03;;;;;;;6.38;3.00;;;;;;;15.37;100.00;96657.25;5058540;28;20048;-52
2023/07/28 04:38:33;;;;;;;4.20;2.60;;;;;;;15.37;100.00;96670.88;5059487;28;20036;-54
2023/07/28 04:41:00;;;;;;;6.28;2.65;;;;;;;15.42;100.00;96670.78;5059393;28;20060;-54
2023/07/28 04:43:44;;;;;;;4.97;2.97;;;;;;;15.44;100.00;96687.66;5060225;28;20044;-54
2023/07/28 04:46:11;;;;;;;5.63;3.35;;;;;;;15.50;100.00;96693.81;5058530;28;20796;-55
2023/07/28 04:48:38;;;;;;;4.60;3.20;;;;;;;15.54;100.00;96687.47;5057182;28;20170;-52
2023/07/28 04:51:25;;;;;;;6.78;3.25;;;;;;;15.56;100.00;96681.72;5060584;28;20051;-54
2023/07/28 04:54:12;;;;;;;5.22;3.22;;;;;;;15.43;100.00;96700.50;5057419;28;20059;-58
2023/07/28 04:56:38;;;;;;;5.43;3.42;;;;;;;15.43;100.00;96727.75;5042168;28;20102;-54
2023/07/28 04:59:06;;;;;;;4.93;3.28;;;;;;;15.48;100.00;96730.41;5058634;28;20154;-53
2023/07/28 05:01:33;;;;;;;5.30;3.50;;;;;;;15.53;100.00;96736.88;5059712;28;20072;-54
2023/07/28 05:04:00;;;;;;;5.28;2.88;;;;;;;15.57;100.00;96732.44;5060115;28;20453;-54
2023/07/28 05:06:28;;;;;;;6.28;3.15;;;;;;;15.58;100.00;96734.88;5058630;28;20048;-54
2023/07/28 05:08:55;;;;;;;6.68;3.03;;;;;;;15.65;100.00;96737.22;5058617;28;20100;-54
2023/07/28 05:11:31;;;;;;;7.13;3.30;;;;;;;15.64;100.00;96730.13;5058189;28;20040;-56
2023/07/28 05:13:58;;;;;;;8.00;3.60;;;;;;;15.66;100.00;96735.28;5058684;28;20048;-51
2023/07/28 05:16:25;;;;;;;7.05;3.58;;;;;;;15.70;100.00;96742.56;5058622;28;20049;-53
2023/07/28 05:19:09;;;;;;;7.13;3.33;;;;;;;15.68;100.00;96733.06;5059363;28;20052;-54
2023/07/28 05:21:39;;;;;;;5.93;3.22;;;;;;;15.67;100.00;96737.69;5059798;28;20047;-50
2023/07/28 05:24:06;;;;;;;7.22;3.70;;;;;;;15.70;100.00;96742.56;5058313;28;20086;-51
2023/07/28 05:26:35;;;;;;;7.50;3.67;;;;;;;15.81;100.00;96732.25;5055278;28;20044;-54
2023/07/28 05:29:01;;;;;;;6.82;3.78;;;;;;;15.83;100.00;96731.97;5058027;28;20116;-52
2023/07/28 05:31:28;;;;;;;7.00;3.45;;;;;;;15.88;100.00;96734.59;5061517;28;20107;-54
2023/07/28 05:33:54;;;;;;;6.22;3.25;;;;;;;15.94;100.00;96741.63;5060035;28;20037;-53
2023/07/28 05:36:21;;;;;;;6.40;3.90;;;;;;;15.94;100.00;96738.03;5061255;28;20136;-54
2023/07/28 05:38:49;;;;;;;6.60;3.63;;;;;;;15.96;100.00;96739.38;5062172;28;20171;-55
2023/07/28 05:41:16;;;;;;;6.13;3.47;;;;;;;16.01;100.00;96735.75;5061201;28;20044;-54
2023/07/28 05:43:44;;;;;;;5.85;3.30;;;;;;;16.02;100.00;96739.28;5062666;28;20032;-53
2023/07/28 05:46:11;;;;;;;6.00;3.40;;;;;;;15.99;100.00;96752.44;5062276;28;20087;-52
2023/07/28 05:48:38;;;;;;;6.40;3.83;;;;;;;15.93;100.00;96756.34;5061169;28;20171;-53
2023/07/28 05:51:05;;;;;;;5.90;3.88;;;;;;;15.98;100.00;96769.13;5061930;28;20063;-53
2023/07/28 05:53:32;;;;;;;5.88;3.58;;;;;;;16.06;100.00;96776.59;5061535;28;20056;-56
2023/07/28 05:56:03;;;;;;;5.45;3.70;;;;;;;16.12;100.00;96760.94;5061277;28;20036;-54
2023/07/28 05:58:32;;;;;;;4.97;3.30;;;;;;;16.18;100.00;96759.72;5060971;28;20241;-54
2023/07/28 06:00:59;;;;;;;5.43;3.58;;;;;;;16.24;100.00;96750.31;5061524;28;20036;-53
2023/07/28 06:03:58;;;;;;;6.20;3.33;;;;;;;16.30;100.00;96742.81;5062713;28;20741;-55
2023/07/28 06:06:27;;;;;;;5.38;3.30;;;;;;;16.31;100.00;96730.78;5060979;28;20054;-53
2023/07/28 06:08:54;;;;;;;5.60;3.25;;;;;;;16.35;100.00;96737.25;5060502;28;20155;-55
2023/07/28 06:11:21;;;;;;;4.35;2.85;;;;;;;16.32;100.00;96750.69;5064559;28;20059;-53
2023/07/28 06:13:47;;;;;;;6.20;3.63;;;;;;;16.35;100.00;96750.09;5063186;28;20052;-53
2023/07/28 06:16:15;;;;;;;5.25;3.55;;;;;;;16.30;100.00;96753.75;5062958;28;20567;-54
2023/07/28 06:18:42;;;;;;;5.57;3.90;;;;;;;16.32;100.00;96751.50;5061114;28;20048;-53
2023/07/28 06:21:15;;;;;;;5.55;3.45;;;;;;;16.32;100.00;96762.44;5058372;28;20044;-53
2023/07/28 06:23:42;;;;;;;5.93;4.03;;;;;;;16.34;100.00;96767.59;5062614;28;20094;-52
2023/07/28 06:26:09;;;;;;;5.78;3.60;;;;;;;16.37;100.00;96767.78;5060485;28;20163;-52
2023/07/28 06:28:37;;;;;;;8.85;3.10;;;;;;;16.43;100.00;96762.25;5061322;28;20097;-54
2023/07/28 06:31:04;;;;;;;6.15;3.83;;;;;;;16.46;100.00;96756.16;5060370;28;20068;-55
2023/07/28 06:33:30;;;;;;;6.35;3.80;;;;;;;16.50;100.00;96741.59;5060205;28;20772;-55
2023/07/28 06:35:57;;;;;;;6.78;3.28;;;;;;;16.59;100.00;96743.59;5060358;28;20569;-54
2023/07/28 06:38:24;;;;;;;6.22;2.95;;;;;;;16.66;100.00;96705.69;5059977;28;20048;-53
2023/07/28 06:40:50;;;;;;;5.95;3.40;;;;;;;16.77;100.00;96712.56;5061552;28;20047;-54
2023/07/28 06:43:19;;;;;;;7.25;4.80;;;;;;;16.89;100.00;96717.47;5062966;28;20048;-52
2023/07/28 06:45:50;;;;;;;5.30;3.35;;;;;;;17.05;100.00;96725.34;5062293;28;20125;-54
2023/07/28 06:48:16;;;;;;;4.63;2.25;;;;;;;17.16;100.00;96725.91;5060501;28;20045;-55
2023/07/28 06:50:43;;;;;;;7.82;2.95;;;;;;;17.34;100.00;96726.03;5063222;28;20044;-54
2023/07/28 06:53:09;;;;;;;4.43;2.25;;;;;;;17.49;100.00;96722.91;5062486;28;20070;-55
2023/07/28 06:55:38;;;;;;;4.65;2.67;;;;;;;17.53;100.00;96723.06;5059895;28;20044;-53
2023/07/28 06:58:06;;;;;;;6.28;2.50;;;;;;;17.66;100.00;96721.38;5063098;28;20544;-51
2023/07/28 07:00:33;;;;;;;4.32;2.13;;;;;;;17.73;100.00;96732.66;5062764;28;20090;-52
2023/07/28 07:03:00;;;;;;;5.03;2.33;;;;;;;17.90;100.00;96729.22;5058705;28;20052;-52
2023/07/28 07:05:27;;;;;;;4.30;2.53;;;;;;;17.91;100.00;96727.31;5060926;28;20039;-53
2023/07/28 07:07:54;;;;;;;4.05;2.15;;;;;;;17.86;100.00;96730.97;5061481;28;20610;-51
2023/07/28 07:10:21;;;;;;;4.93;2.38;;;;;;;17.92;100.00;96726.97;5061942;28;20047;-54
2023/07/28 07:12:47;;;;;;;3.80;2.30;;;;;;;18.11;100.00;96725.13;5061688;28;20063;-51
2023/07/28 07:15:14;;;;;;;4.28;2.10;;;;;;;17.95;100.00;96728.28;5059188;28;20098;-54
2023/07/28 07:17:40;;;;;;;5.45;2.28;;;;;;;18.10;100.00;96732.56;5062079;28;20047;-53
2023/07/28 07:20:08;;;;;;;4.85;2.10;;;;;;;18.17;100.00;96726.59;5061825;28;20044;-54
2023/07/28 07:22:34;;;;;;;4.60;2.47;;;;;;;18.29;100.00;96740.50;5061175;28;20035;-51
2023/07/28 07:25:01;;;;;;;3.90;1.80;;;;;;;18.40;100.00;96731.97;5063452;28;20053;-53
2023/07/28 07:27:30;;;;;;;3.03;1.73;;;;;;;18.45;100.00;96735.38;5062456;28;20051;-53
2023/07/28 07:29:57;;;;;;;3.33;1.60;;;;;;;18.49;100.00;96731.97;5060754;28;20045;-55
2023/07/28 07:32:24;;;;;;;3.42;1.55;;;;;;;18.51;100.00;96735.22;5062655;28;20052;-54
2023/07/28 07:34:50;;;;;;;2.78;1.45;;;;;;;18.61;100.00;96734.91;5062470;28;20041;-56
2023/07/28 07:37:17;;;;;;;2.80;1.48;;;;;;;18.55;100.00;96741.69;5061669;28;20111;-56
2023/07/28 07:39:44;;;;;;;3.15;1.40;;;;;;;18.58;100.00;96741.06;5062788;28;20044;-56
2023/07/28 07:42:11;;;;;;;3.67;1.50;;;;;;;18.67;100.00;96741.88;5065320;28;20037;-54
2023/07/28 07:44:38;;;;;;;4.22;1.63;;;;;;;18.77;100.00;96743.50;5064962;28;20045;-55
2023/07/28 07:47:13;;;;;;;3.35;1.40;;;;;;;18.68;100.00;96748.13;5062581;28;20094;-54
2023/07/28 07:49:40;;;;;;;3.05;1.65;;;;;;;18.88;100.00;96754.13;5063190;28;20037;-54
2023/07/28 07:52:09;;;;;;;3.65;1.83;;;;;;;18.79;100.00;96756.88;5062105;28;20037;-52
2023/07/28 07:54:35;;;;;;;3.15;1.75;;;;;;;18.83;99.59;96758.66;5062575;28;20044;-54
2023/07/28 07:57:03;;;;;;;2.78;1.33;;;;;;;19.03;99.96;96761.06;5062166;28;20048;-55
2023/07/28 07:59:32;;;;;;;2.58;1.35;;;;;;;19.00;97.05;96757.03;5060047;28;20048;-56
2023/07/28 08:02:02;;;;;;;5.18;1.60;;;;;;;18.82;99.86;96762.53;5061344;28;20044;-52
2023/07/28 08:04:31;;;;;;;2.53;1.27;;;;;;;18.75;99.32;96764.13;5059977;28;20126;-55
2023/07/28 08:06:58;;;;;;;2.40;1.30;;;;;;;18.93;98.24;96763.00;5059722;28;20048;-55
2023/07/28 08:09:25;;;;;;;3.53;1.52;;;;;;;19.05;98.22;96775.28;5059740;28;20123;-53
2023/07/28 08:11:52;;;;;;;2.38;1.30;;;;;;;19.08;99.19;96775.47;5060907;28;20115;-52
2023/07/28 08:14:19;;;;;;;3.17;1.30;;;;;;;19.08;96.10;96777.41;5060131;28;20121;-50
2023/07/28 08:16:46;;;;;;;3.67;1.80;;;;;;;19.06;98.45;96769.50;5059943;28;20117;-56
2023/07/28 08:19:12;;;;;;;4.13;1.42;;;;;;;19.15;95.83;96780.47;5060869;28;20122;-55
2023/07/28 08:21:39;;;;;;;3.28;1.27;;;;;;;19.27;96.11;96771.59;5060333;28;20052;-55
2023/07/28 08:24:05;;;;;;;2.85;1.30;;;;;;;19.36;97.17;96779.81;5061552;28;20039;-54
2023/07/28 08:26:32;;;;;;;1.90;1.00;;;;;;;19.52;95.25;96782.06;5060392;28;20059;-54
2023/07/28 08:28:59;;;;;;;2.80;1.40;;;;;;;19.53;94.24;96794.66;5060708;28;20046;-54
2023/07/28 08:31:25;;;;;;;2.25;1.20;;;;;;;19.47;93.86;96794.03;5058475;28;20114;-54
2023/07/28 08:33:52;;;;;;;2.60;1.27;;;;;;;19.49;93.05;96792.56;5060648;28;20517;-54
2023/07/28 08:36:18;;;;;;;4.07;1.60;;;;;;;19.65;92.24;96797.56;5059114;28;20036;-55
2023/07/28 08:38:45;;;;;;;2.75;1.27;;;;;;;19.89;90.33;96798.94;5060118;28;20049;-55
2023/07/28 08:41:14;;;;;;;3.40;1.30;;;;;;;20.01;89.71;96790.03;5059863;28;20045;-55
2023/07/28 08:43:41;;;;;;;2.65;1.40;;;;;;;20.27;90.35;96791.91;5059371;28;20097;-55
2023/07/28 08:46:08;;;;;;;2.30;1.30;;;;;;;20.03;88.69;96779.53;5059989;28;20128;-56
2023/07/28 08:48:35;;;;;;;2.78;1.60;;;;;;;20.17;90.54;96773.84;5059605;28;20684;-55
2023/07/28 08:51:02;;;;;;;2.28;1.20;;;;;;;20.30;89.74;96779.44;5062189;28;20115;-53
2023/07/28 08:53:29;;;;;;;2.53;1.20;;;;;;;20.18;89.72;96778.19;5058565;28;20040;-55
2023/07/28 08:55:55;;;;;;;3.55;1.33;;;;;;;20.04;88.92;96796.84;5060809;28;20527;-53
2023/07/28 08:58:23;;;;;;;2.38;1.13;;;;;;;20.17;89.51;96781.25;5058377;28;20059;-53
2023/07/28 09:00:52;;;;;;;4.35;1.40;;;;;;;20.36;88.34;96789.09;5060865;28;20048;-56
2023/07/28 09:03:19;;;;;;;2.70;1.40;;;;;;;20.33;85.92;96790.56;5059539;28;20486;-55
2023/07/28 09:05:46;;;;;;;3.33;1.48;;;;;;;20.56;85.91;96776.53;5061444;28;20159;-51
2023/07/28 09:08:14;;;;;;;3.42;1.65;;;;;;;20.61;86.39;96783.81;5059179;28;20064;-55
2023/07/28 09:10:46;;;;;;;4.03;1.40;;;;;;;20.86;86.06;96793.00;5057936;28;20052;-53
2023/07/28 09:13:13;;;;;;;3.30;1.48;;;;;;;21.03;84.18;96797.63;5059369;28;20068;-54
2023/07/28 09:15:44;;;;;;;2.75;1.60;;;;;;;20.82;83.56;96807.78;5061589;28;20668;-55
2023/07/28 09:18:12;;;;;;;3.83;1.50;;;;;;;20.63;84.50;96798.00;5060612;28;20041;-52
2023/07/28 09:20:41;;;;;;;2.75;1.58;;;;;;;20.64;83.44;96799.66;5058528;28;20041;-56
2023/07/28 09:23:08;;;;;;;5.10;1.85;;;;;;;20.84;82.01;96805.50;5060303;28;20041;-56
2023/07/28 09:25:37;;;;;;;3.75;1.48;;;;;;;20.95;80.25;96806.75;5058055;28;20028;-55
2023/07/28 09:28:04;;;;;;;2.95;1.35;;;;;;;20.78;81.79;96821.38;5060220;28;20032;-54
2023/07/28 09:30:49;;;;;;;2.83;1.40;;;;;;;20.61;82.11;96806.63;5058580;28;20049;-56
2023/07/28 09:33:37;;;;;;;3.65;1.27;;;;;;;20.81;80.64;96809.72;5059729;28;20054;-56
2023/07/28 09:36:25;;;;;;;3.42;1.67;;;;;;;20.92;79.96;96810.16;5057556;28;20051;-55
2023/07/28 09:38:53;;;;;;;3.42;1.75;;;;;;;21.37;78.61;96803.19;5060246;28;20055;-56
2023/07/28 09:41:21;;;;;;;2.72;1.40;;;;;;;21.65;78.99;96801.81;5059583;28;20643;-56
2023/07/28 09:43:49;;;;;;;2.33;1.20;;;;;;;21.64;78.63;96809.25;5059816;28;20050;-55
2023/07/28 09:46:17;;;;;;;2.67;1.35;;;;;;;21.42;78.79;96793.94;5060912;28;20113;-57
2023/07/28 09:48:47;;;;;;;2.60;1.38;;;;;;;21.44;78.32;96797.94;5061152;28;20045;-55
2023/07/28 09:51:19;;;;;;;3.05;1.42;;;;;;;21.21;78.46;96808.50;5058917;28;20080;-53
2023/07/28 09:53:52;;;;;;;2.40;1.20;;;;;;;21.24;76.85;96802.34;5059950;28;20051;-55
2023/07/28 09:56:21;;;;;;;1.60;1.00;;;;;;;21.39;79.48;96809.19;5060170;28;20040;-52
2023/07/28 09:58:51;;;;;;;2.30;1.10;;;;;;;21.23;77.86;96813.69;5059796;28;20109;-54
2023/07/28 10:01:19;;;;;;;2.13;0.95;;;;;;;21.06;78.05;96815.41;5060316;28;20044;-54
2023/07/28 10:03:47;;;;;;;2.83;0.73;;;;;;;20.97;79.65;96803.69;5059874;28;20055;-55
2023/07/28 10:06:16;;;;;;;3.10;1.23;;;;;;;21.16;79.46;96804.00;5061961;28;20040;-53
2023/07/28 10:08:44;;;;;;;2.95;0.90;;;;;;;21.09;78.98;96813.94;5058438;28;20048;-53
2023/07/28 10:11:16;;;;;;;1.95;0.80;;;;;;;21.25;80.36;96812.19;5060892;28;20044;-54
2023/07/28 10:13:44;;;;;;;1.80;0.90;;;;;;;21.40;80.01;96815.47;5060946;28;20067;-55
2023/07/28 10:16:10;;;;;;;1.83;0.98;;;;;;;21.75;77.45;96815.19;5062251;28;20047;-56
2023/07/28 10:18:37;;;;;;;1.67;1.00;;;;;;;22.18;76.05;96813.09;5062899;28;20136;-56
2023/07/28 10:21:07;;;;;;;3.10;1.13;;;;;;;22.17;75.94;96818.94;5064484;28;20055;-55
2023/07/28 10:23:37;;;;;;;4.95;1.13;;;;;;;21.98;75.63;96822.25;5061579;28;20040;-56
2023/07/28 10:26:07;;;;;;;1.98;0.80;;;;;;;21.77;77.12;96823.09;5063400;28;20041;-55
2023/07/28 10:28:38;;;;;;;4.28;1.25;;;;;;;21.85;77.44;96827.72;5061075;28;20059;-55
2023/07/28 10:31:06;;;;;;;2.10;0.80;;;;;;;21.90;76.78;96824.78;5064715;28;20114;-55
2023/07/28 10:33:34;;;;;;;1.98;0.77;;;;;;;21.48;78.39;96830.31;5063882;28;20052;-54
2023/07/28 10:36:22;;;;;;;2.08;1.05;;;;;;;21.13;79.20;96832.22;5061660;28;20036;-56
2023/07/28 10:39:13;;;;;;;2.15;0.98;;;;;;;21.00;80.78;96831.31;5063116;28;20123;-54
2023/07/28 10:42:00;;;;;;;1.80;0.80;;;;;;;20.85;81.58;96832.69;5063919;28;20057;-56
2023/07/28 10:44:27;;;;;;;1.48;0.80;;;;;;;20.76;81.50;96835.50;5061984;28;20070;-54
2023/07/28 10:46:54;;;;;;;1.35;0.75;;;;;;;20.64;80.77;96836.19;5063026;28;20059;-54
2023/07/28 10:49:21;;;;;;;1.70;0.80;;;;;;;20.87;80.32;96844.22;5062144;28;20055;-55
2023/07/28 10:51:48;;;;;;;1.77;0.85;;;;;;;20.95;81.21;96836.22;5062409;28;20400;-55
2023/07/28 10:54:18;;;;;;;2.17;1.00;;;;;;;21.17;78.54;96840.59;5061993;28;20043;-55
2023/07/28 10:56:44;;;;;;;1.65;0.82;;;;;;;21.52;77.33;96837.56;5062844;28;20037;-56
2023/07/28 10:59:11;;;;;;;2.35;1.20;;;;;;;21.73;75.68;96833.19;5060709;28;20048;-56
2023/07/28 11:01:39;;;;;;;2.00;0.90;;;;;;;21.55;77.38;96827.81;5061496;28;20554;-55
2023/07/28 11:04:11;;;;;;;1.58;0.65;;;;;;;21.33;78.41;96837.25;5062555;28;20058;-55
2023/07/28 11:06:41;;;;;;;1.80;0.85;;;;;;;21.53;77.69;96827.34;5061457;28;20125;-54
2023/07/28 11:09:08;;;;;;;2.08;1.00;;;;;;;21.73;76.75;96834.00;5060359;28;20055;-53
2023/07/28 11:11:36;;;;;;;4.05;1.30;;;;;;;21.60;76.04;96838.66;5063002;28;20049;-55
2023/07/28 11:14:08;;;;;;;2.72;1.10;;;;;;;21.59;76.10;96844.50;5061179;28;20399;-55
2023/07/28 11:16:37;;;;;;;1.90;0.95;;;;;;;21.78;76.14;96839.31;5062561;28;20055;-55
2023/07/28 11:19:11;;;;;;;2.72;1.10;;;;;;;21.65;76.58;96837.63;5062107;28;20048;-52
2023/07/28 11:21:39;;;;;;;2.58;1.00;;;;;;;21.75;76.89;96834.50;5061085;28;20036;-55
2023/07/28 11:24:08;;;;;;;2.22;1.10;;;;;;;21.79;75.72;96840.13;5061656;28;20044;-56
2023/07/28 11:26:36;;;;;;;2.03;1.00;;;;;;;21.91;75.22;96839.34;5059629;28;20049;-55
2023/07/28 11:29:04;;;;;;;2.55;1.20;;;;;;;21.82;75.42;96834.72;5061966;28;20041;-55
2023/07/28 11:31:30;;;;;;;2.90;1.45;;;;;;;22.07;74.94;96837.56;5059581;28;20131;-55
2023/07/28 11:33:57;;;;;;;3.55;1.38;;;;;;;22.25;73.10;96831.84;5061473;28;20044;-56